Johore Bharu, Malaysia

7:44 PM MYT on July 07, 2015 (GMT +0800)
Sultan Ismail | | Change Station
CLOSE
Current Station
Airport
Location: Johore Bharu,
Elevation: 131 ft
Nearby Weather Stations

Elev 131 ft 1.64 °N, 103.67 °E | Updated 44 minutes ago

Mostly Cloudy
Mostly Cloudy
84 °F
Feels Like 94 °F
N
5
Wind Variable Wind from SE

Today
High -- | Low -- °F
--% Chance of Precip.
Yesterday
High -- | Low -- °F
Precip. -- in
7:03 AM 7:16 PM
Waning Gibbous, 65% visible
Pressure 29.74 in
Visibility 6.2 miles
Clouds Few 1700 ft
Scattered Clouds 13000 ft
Mostly Cloudy 28000 ft
Heat Index 94 °F
Dew Point 77 °F
Humidity 79%
Rainfall 0.00 in
Snow Depth Not available.
UV 0 out of 12
Pollen Not available.
Air Quality Not available.
Flu Activity Not available.
METAR WMKJ 071100Z 13004KT 100V190 9999 FEW017CB SCT130 BKN280 29/25 Q1007

More Conditions Fewer Conditions

Pressure 29.74 in
Visibility 6.2 miles
Clouds Few 1700 ft
Scattered Clouds 13000 ft
Mostly Cloudy 28000 ft
Heat Index 94 °F
Dew Point 77 °F
Humidity 79%
Rainfall 0.00 in
Snow Depth Not available.
UV 0 out of 12
Pollen Not available.
Air Quality Not available.
Flu Activity Not available.
METAR WMKJ 071100Z 13004KT 100V190 9999 FEW017CB SCT130 BKN280 29/25 Q1007

More Conditions Fewer Conditions

10-Day Weather Forecast

×

Almanac

Astronomy

Jul. 07, 2015 Rise Set
Actual Time
Civil Twilight
Nautical Twilight
Astronomical Twilight
Moon
Length of Visible Light
Length of Day
Tomorrow will be .
, % of the Moon is Illuminated

Today's Extremes

Country Highs Country Lows

Community

WunderPhotos

Upload Photos

1,835,770 photos uploaded!

WunderBlogs® & News

Nearby

Air Quality

  Air Quality AQ Index Pollutant
Not available.

Snow Depth

Station Depth Elevation

Earthquake Activity

City Distance Mag. Time & Date
Minimum magnitude displayed is 2.5.

Coastal Water Temperatures

Place Temperature

Stations

Nearby Weather Stations

Station Location Temp. Windchill Dew Point Humidity Wind Precip. Elev Updated Type